Aberdeen, WA

5:03 AM PDT on October 24, 2014 (GMT -0700)
Central Park 2 | Change Station
CLOSE
Current Station
Personal Weather Station
Location: Aberdeen, WA
Elevation: 33 ft
Nearby Weather Stations
Active Advisory: Special Statement

Elev 33 ft 46.97 °N, 123.72 °W | Updated 8 minutes ago

Mostly Cloudy
Mostly Cloudy
44.2 °F
Feels Like 44 °F
N
0.0
Wind Variable Wind from East

Today
High -- | Low -- °F
--% Chance of Precip.
Yesterday
High -- | Low -- °F
Precip. -- in
7:46 AM 6:11 PM
New Moon, 0% visible
Pressure 30.00 in
Visibility 8.0 miles
Clouds Few 7000 ft
Mostly Cloudy 12000 ft
Windchill 44 °F
Dew Point 44 °F
Humidity 99%
Rainfall 0.00 in
Snow Depth Not available.
UV 0 out of 12
Pollen .40 out of 12
PM2.5 Good
Flu Activity Sporadic
METAR KHQM 241153Z AUTO 06006KT 8SM FEW070 BKN120 09/08 A2999 RMK AO2 SLP159 60002 70044 T00890083 10100 20089 58001

More Conditions Fewer Conditions

Pressure 30.00 in
Visibility 8.0 miles
Clouds Few 7000 ft
Mostly Cloudy 12000 ft
Windchill 44 °F
Dew Point 44 °F
Humidity 99%
Rainfall 0.00 in
Snow Depth Not available.
UV 0 out of 12
Pollen .40 out of 12
PM2.5 Good
Flu Activity Sporadic
METAR KHQM 241153Z AUTO 06006KT 8SM FEW070 BKN120 09/08 A2999 RMK AO2 SLP159 60002 70044 T00890083 10100 20089 58001

More Conditions Fewer Conditions

10-Day Weather Forecast

Almanac

Astronomy

Oct. 24, 2014 Rise Set
Actual Time 7:46 AM PDT 6:11 PM PDT
Civil Twilight 7:14 AM PDT 6:42 PM PDT
Nautical Twilight 6:39 AM PDT 7:18 PM PDT
Astronomical Twilight 6:04 AM PDT 7:53 PM PDT
Moon 8:33 AM PDT 6:51 PM PDT
Length of Visible Light 11h 27m
Length of Day
10h 25m
Tomorrow will be 3m 9s shorter.
New Moon, 0% of the Moon is Illuminated
Today
New Moon
Oct 30
First Quarter
Nov 6
Full
Nov 14
Last Quarter
Nov 22
New

Today's Extremes

State Highs State Lows

Community

WunderPhotos

Upload Photos

1,764,528 photos uploaded!

Nearby

Air Quality

  Air Quality AQ Index Pollutant
Yesterday Good
PM2.5
Current Good
PM2.5

Snow Depth

Station Depth Elevation
Dungeness 0 in 4100 ft
Burnt Mountain 0 in 4200 ft
Spirit Lake 0 in 3120 ft
Sheep Canyon 0 in 4030 ft
Swift Creek 0 in 3770 ft

Earthquake Activity

City Distance Mag. Time & Date
No recent earthquake activity has been reported nearby.
Minimum magnitude displayed is 2.5.

Coastal Water Temperatures

Place Temperature
Westport, WA 57.9 °F
Tacoma, WA 55.0 °F
Seattle, WA 55.0 °F
Astoria, OR 61.0 °F

Nearby Weather Stations